createdAt,value
2022-11-07T00:00:47.491Z,100610.47
2022-11-07T00:03:16.717Z,100611.75
2022-11-07T00:05:43.370Z,100611.53
2022-11-07T00:08:09.752Z,100603.91
2022-11-07T00:10:36.028Z,100610.13
2022-11-07T00:13:02.583Z,100610.59
2022-11-07T00:15:28.868Z,100604.75
2022-11-07T00:17:55.087Z,100613.88
2022-11-07T00:20:21.493Z,100610.38
2022-11-07T00:22:47.940Z,100611.75
2022-11-07T00:25:14.208Z,100608.84
2022-11-07T00:27:40.575Z,100603.91
2022-11-07T00:30:06.943Z,100606.03
2022-11-07T00:32:36.052Z,100607.69
2022-11-07T00:35:02.304Z,100608.97
2022-11-07T00:37:28.653Z,100594.13
2022-11-07T00:39:55.067Z,100598.19
2022-11-07T00:42:21.352Z,100595.50
2022-11-07T00:44:47.610Z,100592.81
2022-11-07T00:47:13.827Z,100603.59
2022-11-07T00:49:40.235Z,100603.59
2022-11-07T00:52:06.463Z,100610.47
2022-11-07T00:54:32.781Z,100606.72
2022-11-07T00:56:59.101Z,100609.41
2022-11-07T00:59:25.392Z,100608.41
2022-11-07T01:01:51.930Z,100611.53
2022-11-07T01:04:18.375Z,100607.00
2022-11-07T01:06:45.175Z,100602.41
2022-11-07T01:09:11.455Z,100607.44
2022-11-07T01:11:38.240Z,100606.38
2022-11-07T01:14:04.565Z,100611.78
2022-11-07T01:16:31.028Z,100607.44
2022-11-07T01:18:57.262Z,100602.88
2022-11-07T01:21:23.510Z,100592.13
2022-11-07T01:23:49.791Z,100595.88
2022-11-07T01:26:16.011Z,100584.03
2022-11-07T01:28:42.317Z,100583.47
2022-11-07T01:31:08.677Z,100586.16
2022-11-07T01:33:34.987Z,100586.59
2022-11-07T01:36:05.897Z,100583.72
2022-11-07T01:38:32.587Z,100576.47
2022-11-07T01:40:58.987Z,100572.72
2022-11-07T01:43:25.263Z,100581.00
2022-11-07T01:45:51.516Z,100564.03
2022-11-07T01:48:17.876Z,100573.16
2022-11-07T01:50:44.264Z,100571.53
2022-11-07T01:53:10.627Z,100566.13
2022-11-07T01:55:36.916Z,100566.97
2022-11-07T01:58:03.204Z,100557.50
2022-11-07T02:00:29.452Z,100564.28
2022-11-07T02:02:55.885Z,100562.63
2022-11-07T02:05:22.296Z,100568.25
2022-11-07T02:07:48.648Z,100568.25
2022-11-07T02:10:15.276Z,100556.66
2022-11-07T02:12:41.631Z,100553.75
2022-11-07T02:15:07.899Z,100555.84
2022-11-07T02:17:36.932Z,100554.81
2022-11-07T02:20:03.239Z,100550.22
2022-11-07T02:22:29.566Z,100553.16
2022-11-07T02:24:55.817Z,100553.97
2022-11-07T02:27:22.095Z,100559.34
2022-11-07T02:29:48.415Z,100557.72
2022-11-07T02:32:14.818Z,100556.66
2022-11-07T02:34:41.095Z,100557.97
2022-11-07T02:37:07.368Z,100556.91
2022-11-07T02:39:33.810Z,100551.75
2022-11-07T02:42:00.121Z,100557.34
2022-11-07T02:44:26.407Z,100559.81
2022-11-07T02:46:52.636Z,100552.81
2022-11-07T02:49:19.078Z,100557.34
2022-11-07T02:51:45.615Z,100554.22
2022-11-07T02:54:12.001Z,100546.84
2022-11-07T02:56:38.290Z,100553.38
2022-11-07T02:59:04.582Z,100556.34
2022-11-07T03:01:30.878Z,100557.84
2022-11-07T03:03:57.244Z,100557.59
2022-11-07T03:06:23.582Z,100563.22
2022-11-07T03:08:49.827Z,100563.81
2022-11-07T03:11:16.111Z,100563.22
2022-11-07T03:13:42.473Z,100550.59
2022-11-07T03:16:08.935Z,100564.63
2022-11-07T03:18:35.170Z,100559.72
2022-11-07T03:21:01.527Z,100562.63
2022-11-07T03:23:27.768Z,100561.00
2022-11-07T03:25:54.099Z,100564.84
2022-11-07T03:28:20.387Z,100565.91
2022-11-07T03:30:46.769Z,100572.47
2022-11-07T03:33:13.437Z,100567.53
2022-11-07T03:35:39.920Z,100570.00
2022-11-07T03:38:06.490Z,100567.53
2022-11-07T03:40:33.078Z,100570.47
2022-11-07T03:42:59.344Z,100576.31
2022-11-07T03:45:25.648Z,100584.75
2022-11-07T03:47:52.124Z,100588.22
2022-11-07T03:50:18.452Z,100595.72
2022-11-07T03:52:44.712Z,100591.41
2022-11-07T03:55:11.075Z,100597.13
2022-11-07T03:57:37.377Z,100597.81
2022-11-07T04:00:03.657Z,100596.53
2022-11-07T04:02:30.129Z,100601.09
2022-11-07T04:04:56.528Z,100604.84
2022-11-07T04:07:22.880Z,100615.13
2022-11-07T04:09:49.251Z,100609.16
2022-11-07T04:12:15.531Z,100604.03
2022-11-07T04:14:41.884Z,100608.78
2022-11-07T04:17:08.336Z,100608.00
2022-11-07T04:19:34.792Z,100606.72
2022-11-07T04:22:01.084Z,100609.97
2022-11-07T04:24:27.319Z,100609.97
2022-11-07T04:26:53.557Z,100615.84
2022-11-07T04:29:19.831Z,100619.56
2022-11-07T04:31:46.064Z,100617.47
2022-11-07T04:34:12.356Z,100618.16
2022-11-07T04:36:38.738Z,100612.78
2022-11-07T04:39:05.188Z,100615.47
2022-11-07T04:41:31.658Z,100628.69
2022-11-07T04:43:57.952Z,100618.75
2022-11-07T04:46:24.350Z,100626.00
2022-11-07T04:48:50.628Z,100628.09
2022-11-07T04:51:16.914Z,100628.91
2022-11-07T04:53:43.222Z,100618.97
2022-11-07T04:56:09.462Z,100622.50
2022-11-07T04:58:35.808Z,100625.41
2022-11-07T05:01:02.063Z,100629.16
2022-11-07T05:03:28.480Z,100633.72
2022-11-07T05:05:54.825Z,100634.53
2022-11-07T05:08:21.135Z,100633.25
2022-11-07T05:10:47.540Z,100632.31
2022-11-07T05:13:14.070Z,100633.09
2022-11-07T05:15:40.572Z,100640.94
2022-11-07T05:18:07.021Z,100637.69
2022-11-07T05:20:33.248Z,100637.22
2022-11-07T05:22:59.592Z,100633.94
2022-11-07T05:25:25.859Z,100632.53
2022-11-07T05:27:52.196Z,100633.09
2022-11-07T05:30:18.558Z,100638.75
2022-11-07T05:32:44.841Z,100641.78
2022-11-07T05:35:11.165Z,100649.22
2022-11-07T05:37:37.726Z,100649.50
2022-11-07T05:40:04.023Z,100659.19
2022-11-07T05:42:30.300Z,100663.38
2022-11-07T05:44:56.544Z,100661.75
2022-11-07T05:47:22.827Z,100670.41
2022-11-07T05:49:49.094Z,100668.75
2022-11-07T05:52:15.394Z,100679.06
2022-11-07T05:54:41.689Z,100677.88
2022-11-07T05:57:07.983Z,100683.63
2022-11-07T05:59:34.247Z,100681.38
2022-11-07T06:02:00.584Z,100688.63
2022-11-07T06:04:27.043Z,100688.03
2022-11-07T06:06:53.359Z,100684.53
2022-11-07T06:09:19.599Z,100688.25
2022-11-07T06:11:45.920Z,100692.59
2022-11-07T06:14:12.391Z,100700.41
2022-11-07T06:16:38.689Z,100704.38
2022-11-07T06:19:05.055Z,100708.75
2022-11-07T06:21:31.331Z,100705.00
2022-11-07T06:23:57.688Z,100706.84
2022-11-07T06:26:24.016Z,100715.75
2022-11-07T06:28:50.345Z,100712.22
2022-11-07T06:31:16.606Z,100721.56
2022-11-07T06:33:42.941Z,100722.19
2022-11-07T06:36:09.241Z,100727.56
2022-11-07T06:38:35.512Z,100723.59
2022-11-07T06:41:01.781Z,100731.03
2022-11-07T06:43:32.749Z,100722.97
2022-11-07T06:45:59.996Z,100731.03
2022-11-07T06:48:26.411Z,100740.75
2022-11-07T06:50:52.927Z,100740.16
2022-11-07T06:53:19.663Z,100742.41
2022-11-07T06:55:46.354Z,100744.47
2022-11-07T06:58:12.664Z,100746.38
2022-11-07T07:00:39.148Z,100753.25
2022-11-07T07:03:05.611Z,100752.78
2022-11-07T07:05:32.028Z,100753.81
2022-11-07T07:07:58.369Z,100757.78
2022-11-07T07:10:24.814Z,100764.81
2022-11-07T07:12:51.291Z,100770.41
2022-11-07T07:15:17.588Z,100768.53
2022-11-07T07:17:43.976Z,100777.19
2022-11-07T07:20:10.246Z,100775.56
2022-11-07T07:22:36.498Z,100777.44
2022-11-07T07:25:02.869Z,100771.00
2022-11-07T07:27:29.213Z,100774.97
2022-11-07T07:29:55.516Z,100777.88
2022-11-07T07:32:21.769Z,100777.28
2022-11-07T07:34:48.070Z,100774.59
2022-11-07T07:37:14.359Z,100779.97
2022-11-07T07:39:40.580Z,100782.66
2022-11-07T07:42:06.824Z,100784.06
2022-11-07T07:44:33.272Z,100777.88
2022-11-07T07:46:59.535Z,100784.06
2022-11-07T07:49:25.888Z,100783.25
2022-11-07T07:51:52.272Z,100778.09
2022-11-07T07:54:18.569Z,100784.53
2022-11-07T07:56:45.018Z,100780.81
2022-11-07T07:59:11.394Z,100778.94
2022-11-07T08:01:37.953Z,100774.38
2022-11-07T08:04:04.291Z,100773.19
2022-11-07T08:06:30.779Z,100775.66
2022-11-07T08:08:57.075Z,100776.91
2022-11-07T08:11:23.453Z,100786.84
2022-11-07T08:13:49.799Z,100784.16
2022-11-07T08:16:16.175Z,100771.53
2022-11-07T08:18:42.510Z,100778.19
2022-11-07T08:21:08.842Z,100784.97
2022-11-07T08:23:35.148Z,100777.97
2022-11-07T08:26:01.491Z,100771.41
2022-11-07T08:28:29.477Z,100776.44
2022-11-07T08:30:55.849Z,100779.13
2022-11-07T08:33:22.195Z,100779.91
2022-11-07T08:35:48.540Z,100777.38
2022-11-07T08:38:15.008Z,100783.00
2022-11-07T08:40:41.493Z,100779.69
2022-11-07T08:43:07.959Z,100793.34
2022-11-07T08:45:34.402Z,100781.81
2022-11-07T08:48:00.625Z,100781.56
2022-11-07T08:50:26.888Z,100786.13
2022-11-07T08:52:55.836Z,100790.88
2022-11-07T08:55:24.555Z,100792.78
2022-11-07T08:57:50.778Z,100790.31
2022-11-07T09:00:17.200Z,100791.38
2022-11-07T09:05:30.204Z,100789.47
2022-11-07T09:07:56.432Z,100790.53
2022-11-07T09:10:22.754Z,100800.22
2022-11-07T09:12:49.057Z,100787.00
2022-11-07T09:15:15.340Z,100787.63
2022-11-07T09:17:41.551Z,100794.28
2022-11-07T09:20:07.811Z,100797.75
2022-11-07T09:22:34.165Z,100796.13
2022-11-07T09:25:00.508Z,100797.75
2022-11-07T09:27:26.787Z,100798.59
2022-11-07T09:29:53.064Z,100797.75
2022-11-07T09:32:43.469Z,100804.41
2022-11-07T09:35:05.860Z,100797.41
2022-11-07T09:37:32.136Z,100805.47
2022-11-07T09:39:58.547Z,100796.56
2022-11-07T09:42:24.836Z,100799.03
2022-11-07T09:44:51.135Z,100802.56
2022-11-07T09:47:17.641Z,100800.31
2022-11-07T09:49:43.969Z,100801.13
2022-11-07T09:52:10.257Z,100808.00
2022-11-07T09:54:36.476Z,100805.69
2022-11-07T09:57:02.867Z,100804.63
2022-11-07T09:59:29.249Z,100799.13
2022-11-07T10:01:55.667Z,100806.94
2022-11-07T10:04:25.288Z,100804.03
2022-11-07T10:06:52.623Z,100806.38
2022-11-07T10:09:18.920Z,100802.63
2022-11-07T10:11:45.179Z,100800.38
2022-11-07T10:14:11.602Z,100807.19
2022-11-07T10:16:37.939Z,100806.59
2022-11-07T10:19:04.337Z,100806.13
2022-11-07T10:21:37.538Z,100805.53
2022-11-07T10:24:04.675Z,100804.72
2022-11-07T10:26:30.977Z,100798.31
2022-11-07T10:28:57.408Z,100795.63
2022-11-07T10:31:23.882Z,100794.22
2022-11-07T10:33:50.118Z,100798.53
2022-11-07T10:36:16.502Z,100796.66
2022-11-07T10:38:42.920Z,100795.00
2022-11-07T10:41:09.246Z,100792.94
2022-11-07T10:43:35.547Z,100794.78
2022-11-07T10:46:01.819Z,100795.00
2022-11-07T10:48:28.184Z,100795.22
2022-11-07T10:50:54.448Z,100798.75
2022-11-07T10:53:20.764Z,100795.22
2022-11-07T10:55:47.137Z,100795.22
2022-11-07T10:58:13.807Z,100788.00
2022-11-07T11:00:40.417Z,100793.38
2022-11-07T11:03:06.765Z,100792.53
2022-11-07T11:05:33.045Z,100790.47
2022-11-07T11:07:59.529Z,100793.38
2022-11-07T11:10:25.815Z,100788.84
2022-11-07T11:12:52.327Z,100785.53
2022-11-07T11:15:18.616Z,100790.91
2022-11-07T11:17:44.886Z,100788.22
2022-11-07T11:20:11.260Z,100783.06
2022-11-07T11:22:37.755Z,100782.84
2022-11-07T11:25:04.055Z,100785.75
2022-11-07T11:27:30.320Z,100781.00
2022-11-07T11:29:56.587Z,100777.69
2022-11-07T11:32:23.057Z,100782.28
2022-11-07T11:34:49.315Z,100775.00
2022-11-07T11:37:15.571Z,100773.38
2022-11-07T11:39:41.892Z,100775.00
2022-11-07T11:42:08.244Z,100773.38
2022-11-07T11:44:34.560Z,100772.09
2022-11-07T11:47:00.847Z,100770.69
2022-11-07T11:49:27.294Z,100768.84
2022-11-07T11:51:53.615Z,100769.41
2022-11-07T11:54:19.899Z,100773.16
2022-11-07T11:56:47.183Z,100762.63
2022-11-07T11:59:13.434Z,100758.91
2022-11-07T12:01:39.871Z,100769.88
2022-11-07T12:04:08.071Z,100763.22
2022-11-07T12:06:34.855Z,100758.91
2022-11-07T12:09:01.167Z,100763.22
2022-11-07T12:11:27.503Z,100757.25
2022-11-07T12:13:53.752Z,100753.75
2022-11-07T12:16:20.000Z,100762.63
2022-11-07T12:18:46.301Z,100758.31
2022-11-07T12:21:12.564Z,100762.63
2022-11-07T12:23:38.890Z,100759.13
2022-11-07T12:26:05.127Z,100754.56
2022-11-07T12:28:31.394Z,100748.63
2022-11-07T12:30:57.798Z,100756.44
2022-11-07T12:33:24.168Z,100749.19
2022-11-07T12:35:50.473Z,100759.94
2022-11-07T12:38:16.961Z,100759.13
2022-11-07T12:40:43.331Z,100756.44
2022-11-07T12:43:09.554Z,100769.06
2022-11-07T12:45:35.871Z,100759.13
2022-11-07T12:48:02.358Z,100768.00
2022-11-07T12:50:28.766Z,100755.63
2022-11-07T12:52:55.074Z,100758.31
2022-11-07T12:55:21.485Z,100761.59
2022-11-07T12:57:47.781Z,100765.53
2022-11-07T13:00:14.208Z,100769.88
2022-11-07T13:02:40.543Z,100759.94
2022-11-07T13:05:06.842Z,100759.13
2022-11-07T13:07:33.186Z,100763.69
2022-11-07T13:09:59.481Z,100760.16
2022-11-07T13:12:25.985Z,100755.63
2022-11-07T13:14:52.253Z,100760.16
2022-11-07T13:17:18.503Z,100759.13
2022-11-07T13:19:44.938Z,100770.69
2022-11-07T13:22:11.329Z,100757.47
2022-11-07T13:24:37.826Z,100759.13
2022-11-07T13:27:04.107Z,100768.84
2022-11-07T13:29:30.545Z,100764.28
2022-11-07T13:31:57.105Z,100766.38
2022-11-07T13:34:23.415Z,100759.13
2022-11-07T13:36:49.786Z,100764.75
2022-11-07T13:39:16.194Z,100755.84
2022-11-07T13:41:42.558Z,100758.31
2022-11-07T13:44:09.099Z,100768.22
2022-11-07T13:46:35.361Z,100766.59
2022-11-07T13:49:01.768Z,100774.88
2022-11-07T13:51:28.071Z,100786.22
2022-11-07T13:53:54.481Z,100778.97
2022-11-07T13:56:20.802Z,100781.88
2022-11-07T13:58:47.191Z,100772.19
2022-11-07T14:01:13.588Z,100774.03
2022-11-07T14:03:39.872Z,100766.59
2022-11-07T14:06:06.512Z,100766.59
2022-11-07T14:08:32.799Z,100768.44
2022-11-07T14:10:59.351Z,100772.19
2022-11-07T14:15:54.783Z,100769.50
2022-11-07T14:18:21.204Z,100773.03
2022-11-07T14:20:47.953Z,100770.34
2022-11-07T14:23:14.296Z,100765.75
2022-11-07T14:25:40.656Z,100757.69
2022-11-07T14:28:06.987Z,100773.03
2022-11-07T14:30:33.296Z,100764.97
2022-11-07T14:32:59.557Z,100772.19
2022-11-07T14:35:25.918Z,100766.81
2022-11-07T14:37:52.158Z,100764.13
2022-11-07T14:40:18.527Z,100764.97
2022-11-07T14:42:44.825Z,100762.50
2022-11-07T14:45:11.091Z,100762.50
2022-11-07T14:47:37.407Z,100760.59
2022-11-07T14:50:03.939Z,100759.81
2022-11-07T14:52:30.294Z,100750.69
2022-11-07T14:54:56.539Z,100751.75
2022-11-07T14:57:22.821Z,100755.84
2022-11-07T14:59:49.223Z,100752.56
2022-11-07T15:02:15.676Z,100748.00
2022-11-07T15:04:42.254Z,100749.06
2022-11-07T15:07:08.652Z,100762.28
2022-11-07T15:09:34.977Z,100746.97
2022-11-07T15:12:01.335Z,100752.81
2022-11-07T15:14:27.673Z,100748.00
2022-11-07T15:16:53.964Z,100748.84
2022-11-07T15:19:20.216Z,100746.81
2022-11-07T15:21:46.443Z,100748.22
2022-11-07T15:24:15.902Z,100743.69
2022-11-07T15:26:42.321Z,100748.84
2022-11-07T15:29:08.825Z,100744.75
2022-11-07T15:31:35.112Z,100747.44
2022-11-07T15:34:01.484Z,100753.38
2022-11-07T15:36:27.957Z,100746.38
2022-11-07T15:38:54.253Z,100746.97
2022-11-07T15:41:20.512Z,100748.22
2022-11-07T15:43:46.755Z,100750.13
2022-11-07T15:46:13.101Z,100759.81
2022-11-07T15:48:41.392Z,100758.53
2022-11-07T15:51:07.827Z,100752.13
2022-11-07T15:53:34.160Z,100753.75
2022-11-07T15:56:00.507Z,100742.41
2022-11-07T15:58:26.806Z,100752.56
2022-11-07T16:00:53.116Z,100752.13
2022-11-07T16:03:19.383Z,100754.00
2022-11-07T16:05:46.046Z,100745.53
2022-11-07T16:08:12.397Z,100764.97
2022-11-07T16:10:38.769Z,100765.19
2022-11-07T16:13:05.360Z,100767.44
2022-11-07T16:15:31.658Z,100771.97
2022-11-07T16:17:57.968Z,100773.81
2022-11-07T16:20:24.290Z,100773.81
2022-11-07T16:22:50.595Z,100772.19
2022-11-07T16:25:21.335Z,100767.66
2022-11-07T16:27:48.552Z,100770.34
2022-11-07T16:30:14.838Z,100764.97
2022-11-07T16:32:41.138Z,100776.50
2022-11-07T16:35:07.440Z,100768.22
2022-11-07T16:37:33.806Z,100771.97
2022-11-07T16:40:00.088Z,100773.25
2022-11-07T16:42:26.561Z,100772.19
2022-11-07T16:44:52.939Z,100783.28
2022-11-07T16:47:19.312Z,100777.56
2022-11-07T16:49:45.628Z,100779.41
2022-11-07T16:52:12.311Z,100776.72
2022-11-07T16:54:38.609Z,100776.72
2022-11-07T16:57:04.903Z,100785.63
2022-11-07T16:59:31.157Z,100771.00
2022-11-07T17:01:57.751Z,100782.94
2022-11-07T17:04:24.124Z,100789.13
2022-11-07T17:06:50.416Z,100784.56
2022-11-07T17:09:16.992Z,100787.66
2022-11-07T17:11:43.245Z,100785.63
2022-11-07T17:14:09.932Z,100789.34
2022-11-07T17:16:36.383Z,100802.56
2022-11-07T17:19:02.633Z,100802.19
2022-11-07T17:21:28.940Z,100798.63
2022-11-07T17:23:55.189Z,100800.16
2022-11-07T17:26:21.831Z,100799.16
2022-11-07T17:28:48.264Z,100792.38
2022-11-07T17:31:14.729Z,100796.16
2022-11-07T17:33:41.085Z,100792.34
2022-11-07T17:41:18.461Z,100797.81
2022-11-07T17:43:44.793Z,100801.47
2022-11-07T17:46:11.263Z,100795.41
2022-11-07T17:48:37.481Z,100793.41
2022-11-07T17:51:03.955Z,100805.47
2022-11-07T17:53:30.208Z,100804.22
2022-11-07T17:55:56.463Z,100801.88
2022-11-07T17:58:22.785Z,100799.53
2022-11-07T18:00:49.158Z,100798.47
2022-11-07T18:05:50.639Z,100803.06
2022-11-07T18:08:25.267Z,100801.31
2022-11-07T18:11:03.127Z,100805.78
2022-11-07T18:13:29.596Z,100798.19
2022-11-07T18:15:55.917Z,100810.34
2022-11-07T18:20:55.398Z,100806.03
2022-11-07T18:23:21.648Z,100801.56
2022-11-07T18:25:47.908Z,100808.94
2022-11-07T18:28:14.432Z,100804.97
2022-11-07T18:30:40.979Z,100810.25
2022-11-07T18:33:07.246Z,100800.19
2022-11-07T18:35:33.557Z,100802.75
2022-11-07T18:38:00.232Z,100806.38
2022-11-07T18:40:26.649Z,100808.09
2022-11-07T18:42:53.108Z,100814.19
2022-11-07T18:45:19.676Z,100814.31
2022-11-07T18:47:45.987Z,100819.78
2022-11-07T18:50:12.356Z,100820.50
2022-11-07T18:52:38.643Z,100821.66
2022-11-07T18:55:05.008Z,100824.44
2022-11-07T18:57:31.388Z,100814.34
2022-11-07T18:59:57.673Z,100823.09
2022-11-07T19:02:24.046Z,100815.94
2022-11-07T19:04:50.568Z,100824.97
2022-11-07T19:07:16.921Z,100826.84
2022-11-07T19:09:43.303Z,100824.50
2022-11-07T19:12:09.644Z,100827.63
2022-11-07T19:17:17.512Z,100835.09
2022-11-07T19:19:44.167Z,100832.47
2022-11-07T19:22:10.521Z,100838.31
2022-11-07T19:24:36.972Z,100833.72
2022-11-07T19:27:03.309Z,100833.16
2022-11-07T19:29:29.871Z,100841.81
2022-11-07T19:31:56.204Z,100840.03
2022-11-07T19:34:22.627Z,100830.88
2022-11-07T19:36:49.092Z,100843.19
2022-11-07T19:39:15.402Z,100846.44
2022-11-07T19:41:41.719Z,100839.16
2022-11-07T19:44:08.172Z,100847.00
2022-11-07T19:46:34.457Z,100855.53
2022-11-07T19:49:00.786Z,100842.94
2022-11-07T19:51:27.227Z,100856.75
2022-11-07T19:53:53.484Z,100854.66
2022-11-07T19:56:19.796Z,100851.94
2022-11-07T19:58:46.045Z,100842.78
2022-11-07T20:01:12.459Z,100853.00
2022-11-07T20:03:39.025Z,100854.97
2022-11-07T20:06:05.337Z,100853.19
2022-11-07T20:08:31.578Z,100860.56
2022-11-07T20:10:57.979Z,100859.75
2022-11-07T20:13:24.288Z,100860.91
2022-11-07T20:18:34.803Z,100860.97
2022-11-07T20:21:01.116Z,100863.69
2022-11-07T20:23:27.681Z,100854.81
2022-11-07T20:25:54.199Z,100862.44
2022-11-07T20:28:20.527Z,100864.16
2022-11-07T20:33:21.948Z,100860.47
2022-11-07T20:35:48.203Z,100857.78
2022-11-07T20:38:14.920Z,100866.44
2022-11-07T20:40:41.224Z,100858.91
2022-11-07T20:43:07.835Z,100866.03
2022-11-07T20:45:34.154Z,100862.28
2022-11-07T20:48:00.534Z,100862.28
2022-11-07T20:50:26.834Z,100866.25
2022-11-07T20:52:57.637Z,100864.47
2022-11-07T20:55:26.374Z,100866.19
2022-11-07T20:57:52.711Z,100868.91
2022-11-07T21:00:19.294Z,100867.56
2022-11-07T21:02:45.538Z,100874.03
2022-11-07T21:05:17.637Z,100878.16
2022-11-07T21:07:44.448Z,100873.88
2022-11-07T21:10:10.779Z,100883.63
2022-11-07T21:12:37.037Z,100876.31
2022-11-07T21:15:03.316Z,100876.66
2022-11-07T21:17:29.793Z,100885.00
2022-11-07T21:19:56.071Z,100887.31
2022-11-07T21:22:26.630Z,100885.00
2022-11-07T21:24:55.427Z,100885.31
2022-11-07T21:27:21.745Z,100884.75
2022-11-07T21:29:48.301Z,100884.25
2022-11-07T21:32:14.626Z,100893.50
2022-11-07T21:34:40.915Z,100889.47
2022-11-07T21:37:07.207Z,100898.72
2022-11-07T21:39:33.484Z,100898.47
2022-11-07T21:41:59.817Z,100890.72
2022-11-07T21:44:26.183Z,100882.69
2022-11-07T21:46:52.447Z,100892.50
2022-11-07T21:49:18.735Z,100890.84
2022-11-07T21:51:44.975Z,100883.06
2022-11-07T21:54:11.446Z,100889.59
2022-11-07T21:56:37.904Z,100892.38
2022-11-07T21:59:04.231Z,100893.88
2022-11-07T22:01:30.755Z,100888.81
2022-11-07T22:04:13.378Z,100882.88
2022-11-07T22:06:40.185Z,100884.81
2022-11-07T22:09:06.511Z,100878.09
2022-11-07T22:11:32.832Z,100882.19
2022-11-07T22:13:59.133Z,100876.75
2022-11-07T22:16:25.862Z,100879.78
2022-11-07T22:18:52.396Z,100883.31
2022-11-07T22:21:18.653Z,100882.81
2022-11-07T22:23:44.946Z,100881.25
2022-11-07T22:26:11.305Z,100879.91
2022-11-07T22:28:41.500Z,100881.53
2022-11-07T22:31:10.698Z,100872.94
2022-11-07T22:33:36.987Z,100879.72
2022-11-07T22:36:03.435Z,100881.09
2022-11-07T22:38:31.988Z,100882.78
2022-11-07T22:40:58.305Z,100887.94
2022-11-07T22:43:24.610Z,100879.31
2022-11-07T22:45:51.002Z,100892.84
2022-11-07T22:48:17.278Z,100888.81
2022-11-07T22:50:43.588Z,100883.94
2022-11-07T22:53:10.000Z,100886.41
2022-11-07T22:55:36.316Z,100888.31
2022-11-07T22:58:02.627Z,100883.09
2022-11-07T23:00:28.933Z,100878.94
2022-11-07T23:02:55.601Z,100881.28
2022-11-07T23:05:21.954Z,100882.03
2022-11-07T23:07:48.292Z,100882.81
2022-11-07T23:10:15.646Z,100879.78
2022-11-07T23:12:42.521Z,100880.56
2022-11-07T23:15:08.851Z,100880.50
2022-11-07T23:17:35.267Z,100881.81
2022-11-07T23:20:01.563Z,100877.16
2022-11-07T23:22:32.115Z,100874.38
2022-11-07T23:24:58.822Z,100873.81
2022-11-07T23:27:25.320Z,100879.72
2022-11-07T23:29:51.650Z,100873.97
2022-11-07T23:32:17.969Z,100866.59
2022-11-07T23:34:44.244Z,100867.66
2022-11-07T23:37:10.551Z,100871.13
2022-11-07T23:39:36.853Z,100861.63
2022-11-07T23:42:03.272Z,100871.31
2022-11-07T23:44:29.697Z,100862.59
2022-11-07T23:46:56.151Z,100862.06
2022-11-07T23:49:22.700Z,100859.03
2022-11-07T23:51:48.988Z,100860.59
2022-11-07T23:54:15.283Z,100862.97
2022-11-07T23:56:41.629Z,100856.19
2022-11-07T23:59:07.873Z,100866.69
